sensor_id;sensor_type;location;lat;lon;timestamp;pressure;altitude;pressure_sealevel;temperature;humidity
17260;BME280;8746;49.230;9.220;2024-03-23T00:52:09;99085.00;;;8.06;100.00
17260;BME280;8746;49.230;9.220;2024-03-23T00:54:34;99076.28;;;8.06;100.00
17260;BME280;8746;49.230;9.220;2024-03-23T00:56:59;99071.88;;;8.06;100.00
17260;BME280;8746;49.230;9.220;2024-03-23T00:59:25;99064.69;;;8.10;100.00
17260;BME280;8746;49.230;9.220;2024-03-23T01:01:54;99061.75;;;8.17;100.00
17260;BME280;8746;49.230;9.220;2024-03-23T01:04:19;99068.56;;;8.22;100.00
17260;BME280;8746;49.230;9.220;2024-03-23T01:06:45;99050.06;;;8.25;100.00
17260;BME280;8746;49.230;9.220;2024-03-23T01:09:10;99052.59;;;8.26;100.00
17260;BME280;8746;49.230;9.220;2024-03-23T01:11:36;99054.16;;;8.30;100.00
17260;BME280;8746;49.230;9.220;2024-03-23T01:14:02;99045.72;;;8.24;100.00
17260;BME280;8746;49.230;9.220;2024-03-23T01:16:27;99044.34;;;8.15;100.00
17260;BME280;8746;49.230;9.220;2024-03-23T01:18:52;99038.47;;;8.29;100.00
17260;BME280;8746;49.230;9.220;2024-03-23T01:21:18;99031.44;;;8.29;100.00
17260;BME280;8746;49.230;9.220;2024-03-23T01:23:43;99032.22;;;8.31;100.00
17260;BME280;8746;49.230;9.220;2024-03-23T01:26:08;99034.84;;;8.31;100.00
17260;BME280;8746;49.230;9.220;2024-03-23T01:28:33;99023.50;;;8.31;100.00
17260;BME280;8746;49.230;9.220;2024-03-23T01:30:59;99015.75;;;8.28;100.00
17260;BME280;8746;49.230;9.220;2024-03-23T01:33:24;99006.38;;;8.22;100.00
17260;BME280;8746;49.230;9.220;2024-03-23T01:35:49;99009.06;;;8.21;100.00
17260;BME280;8746;49.230;9.220;2024-03-23T01:38:14;99008.22;;;8.20;100.00
17260;BME280;8746;49.230;9.220;2024-03-23T01:40:40;99009.97;;;8.19;100.00
17260;BME280;8746;49.230;9.220;2024-03-23T01:43:07;99008.50;;;8.14;100.00
17260;BME280;8746;49.230;9.220;2024-03-23T01:45:34;99010.50;;;8.09;100.00
17260;BME280;8746;49.230;9.220;2024-03-23T01:48:00;99001.19;;;8.01;100.00
17260;BME280;8746;49.230;9.220;2024-03-23T01:50:27;99013.44;;;8.01;100.00
17260;BME280;8746;49.230;9.220;2024-03-23T01:52:53;99005.47;;;7.83;100.00
17260;BME280;8746;49.230;9.220;2024-03-23T01:55:19;98988.28;;;7.76;100.00
17260;BME280;8746;49.230;9.220;2024-03-23T01:57:45;98976.06;;;7.75;100.00
17260;BME280;8746;49.230;9.220;2024-03-23T02:00:11;98970.97;;;7.72;100.00
17260;BME280;8746;49.230;9.220;2024-03-23T02:02:44;98970.09;;;7.72;100.00
17260;BME280;8746;49.230;9.220;2024-03-23T02:05:11;98961.50;;;7.68;100.00
17260;BME280;8746;49.230;9.220;2024-03-23T02:07:38;98954.50;;;7.68;100.00
17260;BME280;8746;49.230;9.220;2024-03-23T02:10:05;98960.84;;;7.63;100.00
17260;BME280;8746;49.230;9.220;2024-03-23T02:12:31;98953.78;;;7.65;100.00
17260;BME280;8746;49.230;9.220;2024-03-23T02:14:56;98952.91;;;7.64;100.00
17260;BME280;8746;49.230;9.220;2024-03-23T02:17:21;98950.63;;;7.57;100.00
17260;BME280;8746;49.230;9.220;2024-03-23T02:19:47;98945.03;;;7.44;100.00
17260;BME280;8746;49.230;9.220;2024-03-23T02:22:12;98936.72;;;7.54;100.00
17260;BME280;8746;49.230;9.220;2024-03-23T02:24:37;98930.88;;;7.48;100.00
17260;BME280;8746;49.230;9.220;2024-03-23T02:27:03;98935.22;;;7.49;100.00
17260;BME280;8746;49.230;9.220;2024-03-23T02:29:28;98928.97;;;7.51;100.00
17260;BME280;8746;49.230;9.220;2024-03-23T02:31:54;98924.56;;;7.52;100.00
17260;BME280;8746;49.230;9.220;2024-03-23T02:34:19;98925.75;;;7.45;100.00
17260;BME280;8746;49.230;9.220;2024-03-23T02:36:44;98933.44;;;7.49;100.00
17260;BME280;8746;49.230;9.220;2024-03-23T02:39:10;98923.09;;;7.46;100.00
17260;BME280;8746;49.230;9.220;2024-03-23T02:41:36;98932.38;;;7.53;100.00
17260;BME280;8746;49.230;9.220;2024-03-23T02:44:02;98927.00;;;7.57;100.00
17260;BME280;8746;49.230;9.220;2024-03-23T02:46:27;98920.75;;;7.59;100.00
17260;BME280;8746;49.230;9.220;2024-03-23T02:48:52;98917.22;;;7.60;100.00
17260;BME280;8746;49.230;9.220;2024-03-23T02:51:18;98921.28;;;7.67;100.00
17260;BME280;8746;49.230;9.220;2024-03-23T02:53:44;98920.91;;;7.75;100.00
17260;BME280;8746;49.230;9.220;2024-03-23T02:56:09;98910.66;;;7.90;100.00
17260;BME280;8746;49.230;9.220;2024-03-23T02:58:34;98899.78;;;7.97;100.00
17260;BME280;8746;49.230;9.220;2024-03-23T03:00:59;98893.25;;;8.06;100.00
17260;BME280;8746;49.230;9.220;2024-03-23T03:03:25;98900.41;;;8.22;100.00
17260;BME280;8746;49.230;9.220;2024-03-23T03:05:56;98897.34;;;8.31;100.00
17260;BME280;8746;49.230;9.220;2024-03-23T03:08:21;98910.66;;;8.47;100.00
17260;BME280;8746;49.230;9.220;2024-03-23T03:10:47;98905.94;;;8.54;100.00
17260;BME280;8746;49.230;9.220;2024-03-23T03:13:12;98907.97;;;8.66;100.00
17260;BME280;8746;49.230;9.220;2024-03-23T03:15:40;98890.03;;;8.57;100.00
17260;BME280;8746;49.230;9.220;2024-03-23T03:18:05;98890.63;;;8.62;100.00
17260;BME280;8746;49.230;9.220;2024-03-23T03:20:31;98887.31;;;8.76;100.00
17260;BME280;8746;49.230;9.220;2024-03-23T03:22:56;98884.25;;;8.68;100.00
17260;BME280;8746;49.230;9.220;2024-03-23T03:25:22;98872.50;;;8.75;100.00
17260;BME280;8746;49.230;9.220;2024-03-23T03:27:47;98877.81;;;8.73;100.00
17260;BME280;8746;49.230;9.220;2024-03-23T03:30:13;98881.84;;;8.80;100.00
17260;BME280;8746;49.230;9.220;2024-03-23T03:32:38;98880.31;;;8.76;100.00
17260;BME280;8746;49.230;9.220;2024-03-23T03:35:04;98888.09;;;8.78;100.00
17260;BME280;8746;49.230;9.220;2024-03-23T03:37:30;98893.91;;;8.85;100.00
17260;BME280;8746;49.230;9.220;2024-03-23T03:39:55;98886.72;;;8.88;100.00
17260;BME280;8746;49.230;9.220;2024-03-23T03:42:20;98872.56;;;8.91;100.00
17260;BME280;8746;49.230;9.220;2024-03-23T03:44:46;98872.78;;;9.04;100.00
17260;BME280;8746;49.230;9.220;2024-03-23T03:47:11;98858.53;;;9.25;100.00
17260;BME280;8746;49.230;9.220;2024-03-23T03:49:36;98864.41;;;9.80;100.00
17260;BME280;8746;49.230;9.220;2024-03-23T03:52:02;98847.34;;;10.03;100.00
17260;BME280;8746;49.230;9.220;2024-03-23T03:54:27;98849.28;;;10.32;100.00
17260;BME280;8746;49.230;9.220;2024-03-23T03:56:53;98857.19;;;10.48;100.00
17260;BME280;8746;49.230;9.220;2024-03-23T03:59:18;98857.09;;;10.49;100.00
17260;BME280;8746;49.230;9.220;2024-03-23T04:01:44;98841.59;;;10.59;100.00
17260;BME280;8746;49.230;9.220;2024-03-23T04:04:09;98834.00;;;10.69;100.00
17260;BME280;8746;49.230;9.220;2024-03-23T04:06:34;98839.25;;;10.69;100.00
17260;BME280;8746;49.230;9.220;2024-03-23T04:09:00;98831.56;;;10.80;100.00
17260;BME280;8746;49.230;9.220;2024-03-23T04:11:25;98833.88;;;10.86;100.00
17260;BME280;8746;49.230;9.220;2024-03-23T04:13:51;98823.38;;;10.85;100.00
17260;BME280;8746;49.230;9.220;2024-03-23T04:16:33;98832.47;;;10.95;100.00
17260;BME280;8746;49.230;9.220;2024-03-23T04:18:58;98828.97;;;10.95;100.00
17260;BME280;8746;49.230;9.220;2024-03-23T04:21:24;98812.69;;;11.02;100.00
17260;BME280;8746;49.230;9.220;2024-03-23T04:23:49;98815.69;;;11.11;100.00
17260;BME280;8746;49.230;9.220;2024-03-23T04:26:15;98819.66;;;11.18;100.00
17260;BME280;8746;49.230;9.220;2024-03-23T04:28:40;98824.88;;;11.19;100.00
17260;BME280;8746;49.230;9.220;2024-03-23T04:31:06;98826.47;;;11.22;100.00
17260;BME280;8746;49.230;9.220;2024-03-23T04:33:31;98837.56;;;11.13;100.00
17260;BME280;8746;49.230;9.220;2024-03-23T04:35:57;98821.28;;;11.06;100.00
17260;BME280;8746;49.230;9.220;2024-03-23T04:38:22;98826.06;;;10.99;100.00
17260;BME280;8746;49.230;9.220;2024-03-23T04:40:57;98839.88;;;10.88;100.00
17260;BME280;8746;49.230;9.220;2024-03-23T04:43:23;98835.63;;;10.86;100.00
17260;BME280;8746;49.230;9.220;2024-03-23T04:45:49;98827.44;;;10.90;100.00
17260;BME280;8746;49.230;9.220;2024-03-23T04:48:15;98821.34;;;10.90;100.00
17260;BME280;8746;49.230;9.220;2024-03-23T04:50:41;98825.47;;;10.94;100.00
17260;BME280;8746;49.230;9.220;2024-03-23T04:53:06;98824.91;;;10.89;100.00
17260;BME280;8746;49.230;9.220;2024-03-23T04:55:32;98829.81;;;10.95;100.00
17260;BME280;8746;49.230;9.220;2024-03-23T04:57:57;98828.38;;;10.89;100.00
17260;BME280;8746;49.230;9.220;2024-03-23T05:00:23;98834.22;;;10.95;100.00
17260;BME280;8746;49.230;9.220;2024-03-23T05:02:48;98842.44;;;10.90;100.00
17260;BME280;8746;49.230;9.220;2024-03-23T05:05:14;98841.03;;;10.99;100.00
17260;BME280;8746;49.230;9.220;2024-03-23T05:07:39;98840.53;;;10.92;100.00
17260;BME280;8746;49.230;9.220;2024-03-23T05:10:05;98844.13;;;10.91;100.00
17260;BME280;8746;49.230;9.220;2024-03-23T05:12:30;98844.13;;;10.91;100.00
17260;BME280;8746;49.230;9.220;2024-03-23T05:14:57;98841.41;;;10.93;100.00
17260;BME280;8746;49.230;9.220;2024-03-23T05:17:22;98834.53;;;10.90;100.00
17260;BME280;8746;49.230;9.220;2024-03-23T05:19:47;98848.72;;;10.87;100.00
17260;BME280;8746;49.230;9.220;2024-03-23T05:22:13;98841.28;;;10.80;100.00
17260;BME280;8746;49.230;9.220;2024-03-23T05:24:38;98851.53;;;10.70;100.00
17260;BME280;8746;49.230;9.220;2024-03-23T05:27:03;98847.06;;;10.56;100.00
17260;BME280;8746;49.230;9.220;2024-03-23T05:29:29;98850.41;;;10.44;100.00
17260;BME280;8746;49.230;9.220;2024-03-23T05:31:54;98823.00;;;10.30;100.00
17260;BME280;8746;49.230;9.220;2024-03-23T05:34:22;98822.59;;;10.22;100.00
17260;BME280;8746;49.230;9.220;2024-03-23T05:36:47;98828.13;;;10.17;100.00
17260;BME280;8746;49.230;9.220;2024-03-23T05:39:14;98825.56;;;10.16;100.00
17260;BME280;8746;49.230;9.220;2024-03-23T05:41:41;98847.34;;;10.19;100.00
17260;BME280;8746;49.230;9.220;2024-03-23T05:44:07;98861.34;;;10.20;100.00
17260;BME280;8746;49.230;9.220;2024-03-23T05:46:32;98870.63;;;10.11;100.00
17260;BME280;8746;49.230;9.220;2024-03-23T05:49:01;98868.50;;;10.02;100.00
17260;BME280;8746;49.230;9.220;2024-03-23T05:51:27;98882.69;;;9.99;100.00
17260;BME280;8746;49.230;9.220;2024-03-23T05:53:52;98877.59;;;9.96;100.00
17260;BME280;8746;49.230;9.220;2024-03-23T05:56:20;98887.84;;;9.85;100.00
17260;BME280;8746;49.230;9.220;2024-03-23T05:58:45;98891.16;;;9.72;100.00
17260;BME280;8746;49.230;9.220;2024-03-23T06:01:11;98903.22;;;9.60;100.00
17260;BME280;8746;49.230;9.220;2024-03-23T06:03:38;98911.50;;;9.53;100.00
17260;BME280;8746;49.230;9.220;2024-03-23T06:06:03;98916.38;;;9.43;100.00
17260;BME280;8746;49.230;9.220;2024-03-23T06:08:29;98918.41;;;9.38;100.00
17260;BME280;8746;49.230;9.220;2024-03-23T06:10:55;98917.56;;;9.37;100.00
17260;BME280;8746;49.230;9.220;2024-03-23T06:13:20;98924.69;;;9.35;100.00
17260;BME280;8746;49.230;9.220;2024-03-23T06:15:49;98932.81;;;9.30;100.00
17260;BME280;8746;49.230;9.220;2024-03-23T06:18:15;98934.63;;;9.30;100.00
17260;BME280;8746;49.230;9.220;2024-03-23T06:20:40;98939.28;;;9.25;100.00
17260;BME280;8746;49.230;9.220;2024-03-23T06:23:05;98941.13;;;9.23;100.00
17260;BME280;8746;49.230;9.220;2024-03-23T06:25:31;98936.00;;;9.20;100.00
17260;BME280;8746;49.230;9.220;2024-03-23T06:27:56;98942.81;;;9.24;100.00
17260;BME280;8746;49.230;9.220;2024-03-23T06:30:23;98946.38;;;9.23;100.00
17260;BME280;8746;49.230;9.220;2024-03-23T06:32:48;98951.66;;;9.23;100.00
17260;BME280;8746;49.230;9.220;2024-03-23T06:35:14;98957.69;;;9.25;100.00
17260;BME280;8746;49.230;9.220;2024-03-23T06:37:39;98985.47;;;9.30;100.00
17260;BME280;8746;49.230;9.220;2024-03-23T06:40:07;99005.69;;;9.30;100.00
17260;BME280;8746;49.230;9.220;2024-03-23T06:42:34;99007.00;;;8.85;100.00
17260;BME280;8746;49.230;9.220;2024-03-23T06:45:00;99041.78;;;8.53;100.00
17260;BME280;8746;49.230;9.220;2024-03-23T06:47:25;99046.88;;;8.37;100.00
17260;BME280;8746;49.230;9.220;2024-03-23T06:49:51;99049.69;;;8.32;100.00
17260;BME280;8746;49.230;9.220;2024-03-23T06:52:16;99053.69;;;8.22;100.00
17260;BME280;8746;49.230;9.220;2024-03-23T06:54:41;99070.81;;;8.10;100.00
17260;BME280;8746;49.230;9.220;2024-03-23T06:57:07;99087.06;;;7.99;100.00
17260;BME280;8746;49.230;9.220;2024-03-23T06:59:32;99106.69;;;7.91;100.00
17260;BME280;8746;49.230;9.220;2024-03-23T07:01:57;99113.31;;;7.79;100.00
17260;BME280;8746;49.230;9.220;2024-03-23T07:04:23;99118.09;;;7.69;100.00
17260;BME280;8746;49.230;9.220;2024-03-23T07:06:48;99130.31;;;7.70;100.00
17260;BME280;8746;49.230;9.220;2024-03-23T07:09:13;99126.84;;;7.69;100.00
17260;BME280;8746;49.230;9.220;2024-03-23T07:11:39;99134.72;;;7.69;100.00
17260;BME280;8746;49.230;9.220;2024-03-23T07:14:04;99146.56;;;7.58;100.00
17260;BME280;8746;49.230;9.220;2024-03-23T07:16:30;99142.56;;;7.49;100.00
17260;BME280;8746;49.230;9.220;2024-03-23T07:18:55;99160.97;;;7.47;100.00
17260;BME280;8746;49.230;9.220;2024-03-23T07:21:21;99152.31;;;7.45;100.00
17260;BME280;8746;49.230;9.220;2024-03-23T07:23:47;99155.84;;;7.44;100.00
17260;BME280;8746;49.230;9.220;2024-03-23T07:26:12;99166.34;;;7.44;100.00
17260;BME280;8746;49.230;9.220;2024-03-23T07:28:38;99177.34;;;7.54;100.00
17260;BME280;8746;49.230;9.220;2024-03-23T07:31:09;99186.75;;;7.60;100.00
17260;BME280;8746;49.230;9.220;2024-03-23T07:33:36;99196.91;;;7.67;100.00
17260;BME280;8746;49.230;9.220;2024-03-23T07:36:02;99204.56;;;7.74;100.00
17260;BME280;8746;49.230;9.220;2024-03-23T07:38:28;99203.22;;;7.85;100.00
17260;BME280;8746;49.230;9.220;2024-03-23T07:41:10;99210.84;;;7.92;100.00
17260;BME280;8746;49.230;9.220;2024-03-23T07:43:37;99206.34;;;7.94;100.00
17260;BME280;8746;49.230;9.220;2024-03-23T07:46:03;99222.25;;;7.91;100.00
17260;BME280;8746;49.230;9.220;2024-03-23T07:48:29;99220.47;;;7.91;100.00
17260;BME280;8746;49.230;9.220;2024-03-23T07:53:27;99216.59;;;8.00;100.00
17260;BME280;8746;49.230;9.220;2024-03-23T07:55:57;99224.50;;;8.21;100.00
17260;BME280;8746;49.230;9.220;2024-03-23T07:58:23;99228.50;;;8.29;100.00
17260;BME280;8746;49.230;9.220;2024-03-23T08:00:48;99224.69;;;8.59;100.00
17260;BME280;8746;49.230;9.220;2024-03-23T08:03:13;99228.50;;;8.52;100.00
17260;BME280;8746;49.230;9.220;2024-03-23T08:05:39;99229.97;;;8.37;100.00
17260;BME280;8746;49.230;9.220;2024-03-23T08:08:04;99249.88;;;8.42;100.00
17260;BME280;8746;49.230;9.220;2024-03-23T08:10:30;99253.09;;;8.50;100.00
17260;BME280;8746;49.230;9.220;2024-03-23T08:12:55;99265.88;;;8.58;99.68
17260;BME280;8746;49.230;9.220;2024-03-23T08:15:20;99266.97;;;8.54;100.00
17260;BME280;8746;49.230;9.220;2024-03-23T08:17:46;99271.91;;;8.40;99.61
17260;BME280;8746;49.230;9.220;2024-03-23T08:20:11;99286.09;;;8.36;100.00
17260;BME280;8746;49.230;9.220;2024-03-23T08:22:37;99288.50;;;8.40;100.00
17260;BME280;8746;49.230;9.220;2024-03-23T08:25:02;99297.28;;;8.41;100.00
17260;BME280;8746;49.230;9.220;2024-03-23T08:27:28;99302.69;;;8.58;99.59
17260;BME280;8746;49.230;9.220;2024-03-23T08:29:53;99305.72;;;8.70;98.65
17260;BME280;8746;49.230;9.220;2024-03-23T08:32:18;99315.59;;;8.64;94.60
17260;BME280;8746;49.230;9.220;2024-03-23T08:34:44;99318.72;;;8.52;95.07
17260;BME280;8746;49.230;9.220;2024-03-23T08:37:09;99338.28;;;8.45;93.20
17260;BME280;8746;49.230;9.220;2024-03-23T08:39:34;99322.66;;;8.42;88.75
17260;BME280;8746;49.230;9.220;2024-03-23T08:41:59;99335.97;;;8.37;88.53
17260;BME280;8746;49.230;9.220;2024-03-23T08:44:25;99344.28;;;8.48;87.85
17260;BME280;8746;49.230;9.220;2024-03-23T08:46:50;99349.53;;;8.26;87.42
17260;BME280;8746;49.230;9.220;2024-03-23T08:49:15;99362.44;;;8.10;88.44
17260;BME280;8746;49.230;9.220;2024-03-23T08:51:41;99371.72;;;7.97;90.46
17260;BME280;8746;49.230;9.220;2024-03-23T08:54:06;99377.53;;;8.05;90.73
17260;BME280;8746;49.230;9.220;2024-03-23T08:56:31;99376.47;;;8.09;89.65
17260;BME280;8746;49.230;9.220;2024-03-23T08:58:57;99378.84;;;7.93;90.76
17260;BME280;8746;49.230;9.220;2024-03-23T09:01:22;99374.56;;;7.91;92.43
17260;BME280;8746;49.230;9.220;2024-03-23T09:03:48;99371.88;;;7.92;92.58
17260;BME280;8746;49.230;9.220;2024-03-23T09:06:14;99381.34;;;7.96;91.83
17260;BME280;8746;49.230;9.220;2024-03-23T09:08:40;99377.28;;;8.11;92.22
17260;BME280;8746;49.230;9.220;2024-03-23T09:11:12;99383.84;;;8.45;92.38
17260;BME280;8746;49.230;9.220;2024-03-23T09:13:39;99378.03;;;8.59;90.15
17260;BME280;8746;49.230;9.220;2024-03-23T09:16:06;99385.41;;;8.72;88.81
17260;BME280;8746;49.230;9.220;2024-03-23T09:18:32;99392.78;;;8.84;88.60
17260;BME280;8746;49.230;9.220;2024-03-23T09:20:58;99400.28;;;8.73;82.74
17260;BME280;8746;49.230;9.220;2024-03-23T09:23:24;99401.00;;;8.76;83.14
17260;BME280;8746;49.230;9.220;2024-03-23T09:25:49;99404.03;;;8.88;83.84
17260;BME280;8746;49.230;9.220;2024-03-23T09:28:15;99399.31;;;8.96;81.97
17260;BME280;8746;49.230;9.220;2024-03-23T09:30:40;99394.50;;;9.26;81.56
17260;BME280;8746;49.230;9.220;2024-03-23T09:33:12;99389.06;;;9.31;79.73
17260;BME280;8746;49.230;9.220;2024-03-23T09:35:38;99391.41;;;9.37;77.18
17260;BME280;8746;49.230;9.220;2024-03-23T09:38:04;99395.22;;;9.51;77.70
17260;BME280;8746;49.230;9.220;2024-03-23T09:40:29;99402.72;;;9.79;75.53
17260;BME280;8746;49.230;9.220;2024-03-23T09:42:55;99398.50;;;9.94;70.19
17260;BME280;8746;49.230;9.220;2024-03-23T09:45:21;99403.28;;;10.24;71.48
17260;BME280;8746;49.230;9.220;2024-03-23T09:47:48;99407.03;;;10.37;71.90
17260;BME280;8746;49.230;9.220;2024-03-23T09:50:13;99399.13;;;10.37;68.13
17260;BME280;8746;49.230;9.220;2024-03-23T09:52:40;99402.66;;;10.00;71.62
17260;BME280;8746;49.230;9.220;2024-03-23T09:55:08;99404.53;;;10.34;68.96
17260;BME280;8746;49.230;9.220;2024-03-23T09:57:33;99405.69;;;10.29;67.46
17260;BME280;8746;49.230;9.220;2024-03-23T09:59:59;99400.91;;;10.18;65.49
17260;BME280;8746;49.230;9.220;2024-03-23T10:02:24;99406.28;;;9.97;67.22
17260;BME280;8746;49.230;9.220;2024-03-23T10:04:50;99404.16;;;9.86;68.56
17260;BME280;8746;49.230;9.220;2024-03-23T10:07:19;99416.66;;;9.62;69.07
17260;BME280;8746;49.230;9.220;2024-03-23T10:09:45;99417.00;;;9.54;69.26
17260;BME280;8746;49.230;9.220;2024-03-23T10:12:13;99414.13;;;9.59;68.45
17260;BME280;8746;49.230;9.220;2024-03-23T10:14:41;99411.22;;;9.65;68.04
17260;BME280;8746;49.230;9.220;2024-03-23T10:17:14;99415.53;;;9.68;69.75
17260;BME280;8746;49.230;9.220;2024-03-23T10:19:41;99412.09;;;9.66;68.94
17260;BME280;8746;49.230;9.220;2024-03-23T10:22:08;99418.75;;;9.54;69.34
17260;BME280;8746;49.230;9.220;2024-03-23T10:24:34;99419.47;;;9.57;69.52
17260;BME280;8746;49.230;9.220;2024-03-23T10:27:00;99428.47;;;9.72;69.43
17260;BME280;8746;49.230;9.220;2024-03-23T10:29:25;99420.41;;;9.56;68.34
17260;BME280;8746;49.230;9.220;2024-03-23T10:31:52;99423.50;;;9.45;66.65
17260;BME280;8746;49.230;9.220;2024-03-23T10:34:25;99418.47;;;9.41;65.33
17260;BME280;8746;49.230;9.220;2024-03-23T10:36:53;99421.13;;;9.39;64.05
17260;BME280;8746;49.230;9.220;2024-03-23T10:39:20;99420.06;;;9.64;66.15
17260;BME280;8746;49.230;9.220;2024-03-23T10:41:49;99421.63;;;9.68;65.48
17260;BME280;8746;49.230;9.220;2024-03-23T10:44:17;99425.22;;;9.46;63.03
17260;BME280;8746;49.230;9.220;2024-03-23T10:46:44;99433.66;;;9.34;65.88
17260;BME280;8746;49.230;9.220;2024-03-23T10:49:10;99424.22;;;9.28;65.07
17260;BME280;8746;49.230;9.220;2024-03-23T10:51:35;99428.06;;;9.21;63.43
17260;BME280;8746;49.230;9.220;2024-03-23T10:54:04;99432.25;;;9.05;66.33
17260;BME280;8746;49.230;9.220;2024-03-23T10:56:32;99433.50;;;8.96;67.91
17260;BME280;8746;49.230;9.220;2024-03-23T10:59:01;99435.22;;;8.97;67.79
17260;BME280;8746;49.230;9.220;2024-03-23T11:01:28;99439.09;;;8.88;69.08
17260;BME280;8746;49.230;9.220;2024-03-23T11:03:53;99439.28;;;8.84;70.18
17260;BME280;8746;49.230;9.220;2024-03-23T11:06:38;99426.63;;;9.14;70.32
17260;BME280;8746;49.230;9.220;2024-03-23T11:12:24;99423.91;;;9.36;69.56
17260;BME280;8746;49.230;9.220;2024-03-23T11:14:55;99412.22;;;9.62;69.15
17260;BME280;8746;49.230;9.220;2024-03-23T11:17:23;99407.66;;;9.66;69.04
17260;BME280;8746;49.230;9.220;2024-03-23T11:19:59;99406.13;;;10.00;70.87
17260;BME280;8746;49.230;9.220;2024-03-23T11:25:02;99383.22;;;12.11;63.54
17260;BME280;8746;49.230;9.220;2024-03-23T11:27:28;99387.03;;;12.06;61.75
17260;BME280;8746;49.230;9.220;2024-03-23T11:29:53;99392.88;;;12.89;58.58
17260;BME280;8746;49.230;9.220;2024-03-23T11:32:18;99388.94;;;12.66;57.79
17260;BME280;8746;49.230;9.220;2024-03-23T11:34:44;99384.94;;;12.75;56.72
17260;BME280;8746;49.230;9.220;2024-03-23T11:37:09;99376.19;;;13.62;55.59
17260;BME280;8746;49.230;9.220;2024-03-23T11:39:35;99375.94;;;13.08;56.29
17260;BME280;8746;49.230;9.220;2024-03-23T11:42:00;99380.38;;;12.14;55.40
17260;BME280;8746;49.230;9.220;2024-03-23T11:44:26;99379.53;;;12.14;56.86
17260;BME280;8746;49.230;9.220;2024-03-23T11:46:52;99362.59;;;12.48;57.22
17260;BME280;8746;49.230;9.220;2024-03-23T11:49:24;99365.63;;;12.26;55.12
17260;BME280;8746;49.230;9.220;2024-03-23T11:51:50;99372.19;;;12.35;54.78
17260;BME280;8746;49.230;9.220;2024-03-23T11:54:16;99371.81;;;11.77;56.38
17260;BME280;8746;49.230;9.220;2024-03-23T11:57:03;99381.31;;;11.48;58.63
17260;BME280;8746;49.230;9.220;2024-03-23T11:59:40;99367.50;;;11.43;59.53
17260;BME280;8746;49.230;9.220;2024-03-23T12:02:12;99362.88;;;11.80;60.07
17260;BME280;8746;49.230;9.220;2024-03-23T12:04:40;99348.53;;;11.84;59.10
17260;BME280;8746;49.230;9.220;2024-03-23T12:07:19;99363.94;;;12.09;58.26
17260;BME280;8746;49.230;9.220;2024-03-23T12:09:46;99364.41;;;12.48;56.06
17260;BME280;8746;49.230;9.220;2024-03-23T12:12:18;99348.19;;;11.90;57.38
17260;BME280;8746;49.230;9.220;2024-03-23T12:14:44;99354.09;;;11.95;57.77
17260;BME280;8746;49.230;9.220;2024-03-23T12:17:11;99365.06;;;11.71;57.71
17260;BME280;8746;49.230;9.220;2024-03-23T12:19:37;99352.97;;;11.67;58.07
17260;BME280;8746;49.230;9.220;2024-03-23T12:22:04;99343.41;;;11.31;58.53
17260;BME280;8746;49.230;9.220;2024-03-23T12:24:29;99347.72;;;11.50;60.11
17260;BME280;8746;49.230;9.220;2024-03-23T12:26:55;99338.88;;;11.51;59.34
17260;BME280;8746;49.230;9.220;2024-03-23T12:29:20;99338.53;;;11.73;59.48
17260;BME280;8746;49.230;9.220;2024-03-23T12:31:45;99332.56;;;11.69;58.89
17260;BME280;8746;49.230;9.220;2024-03-23T12:34:11;99323.00;;;11.35;59.14
17260;BME280;8746;49.230;9.220;2024-03-23T12:36:36;99321.25;;;11.67;59.00
17260;BME280;8746;49.230;9.220;2024-03-23T12:39:01;99318.88;;;11.79;57.13
17260;BME280;8746;49.230;9.220;2024-03-23T12:41:27;99328.66;;;11.77;57.08
17260;BME280;8746;49.230;9.220;2024-03-23T12:43:52;99334.13;;;11.58;54.35
17260;BME280;8746;49.230;9.220;2024-03-23T12:46:17;99319.63;;;11.49;54.25
17260;BME280;8746;49.230;9.220;2024-03-23T12:48:44;99314.72;;;11.41;54.04
17260;BME280;8746;49.230;9.220;2024-03-23T12:51:10;99302.50;;;11.56;51.85
17260;BME280;8746;49.230;9.220;2024-03-23T12:53:35;99308.94;;;11.34;52.88
17260;BME280;8746;49.230;9.220;2024-03-23T12:56:00;99311.41;;;11.37;50.97
17260;BME280;8746;49.230;9.220;2024-03-23T12:58:26;99310.72;;;11.50;52.64
17260;BME280;8746;49.230;9.220;2024-03-23T13:00:52;99313.16;;;11.70;49.01
17260;BME280;8746;49.230;9.220;2024-03-23T13:03:17;99355.53;;;11.85;48.59
17260;BME280;8746;49.230;9.220;2024-03-23T13:05:43;99375.28;;;10.58;55.12
17260;BME280;8746;49.230;9.220;2024-03-23T13:08:08;99372.22;;;9.73;59.26
17260;BME280;8746;49.230;9.220;2024-03-23T13:10:33;99371.38;;;9.73;60.52
17260;BME280;8746;49.230;9.220;2024-03-23T13:12:59;99369.56;;;9.14;62.72
17260;BME280;8746;49.230;9.220;2024-03-23T13:15:24;99391.94;;;8.84;64.52
17260;BME280;8746;49.230;9.220;2024-03-23T13:17:49;99383.19;;;8.83;69.32
17260;BME280;8746;49.230;9.220;2024-03-23T13:20:15;99413.47;;;8.49;71.76
17260;BME280;8746;49.230;9.220;2024-03-23T13:22:41;99439.38;;;8.14;78.73
17260;BME280;8746;49.230;9.220;2024-03-23T13:25:07;99445.94;;;7.78;85.93
17260;BME280;8746;49.230;9.220;2024-03-23T13:27:33;99460.25;;;6.65;95.23
17260;BME280;8746;49.230;9.220;2024-03-23T13:29:58;99463.50;;;6.17;100.00
17260;BME280;8746;49.230;9.220;2024-03-23T13:32:23;99451.44;;;6.11;100.00
17260;BME280;8746;49.230;9.220;2024-03-23T13:34:48;99436.06;;;6.29;100.00
17260;BME280;8746;49.230;9.220;2024-03-23T13:37:15;99427.97;;;6.65;100.00
17260;BME280;8746;49.230;9.220;2024-03-23T13:39:41;99419.47;;;7.10;100.00
17260;BME280;8746;49.230;9.220;2024-03-23T13:42:07;99410.56;;;7.65;100.00
17260;BME280;8746;49.230;9.220;2024-03-23T13:44:34;99404.94;;;7.98;100.00
17260;BME280;8746;49.230;9.220;2024-03-23T13:46:59;99414.81;;;8.15;100.00
17260;BME280;8746;49.230;9.220;2024-03-23T13:49:31;99427.16;;;7.89;100.00
17260;BME280;8746;49.230;9.220;2024-03-23T13:51:57;99422.81;;;7.64;100.00
17260;BME280;8746;49.230;9.220;2024-03-23T13:54:25;99451.72;;;7.39;100.00
17260;BME280;8746;49.230;9.220;2024-03-23T13:56:51;99451.84;;;7.09;100.00
17260;BME280;8746;49.230;9.220;2024-03-23T13:59:17;99482.69;;;7.02;100.00
17260;BME280;8746;49.230;9.220;2024-03-23T14:01:43;99469.41;;;6.23;100.00
17260;BME280;8746;49.230;9.220;2024-03-23T14:04:10;99428.25;;;5.99;100.00
17260;BME280;8746;49.230;9.220;2024-03-23T14:06:36;99409.69;;;6.06;100.00